createdAt,value
2019-03-31T00:03:57.030Z,6.10
2019-03-31T00:09:26.575Z,6.10
2019-03-31T00:14:57.427Z,6.00
2019-03-31T00:20:26.958Z,5.90
2019-03-31T00:25:56.376Z,5.80
2019-03-31T00:31:25.817Z,5.70
2019-03-31T00:36:55.371Z,5.70
2019-03-31T00:42:24.822Z,5.70
2019-03-31T00:47:55.888Z,5.60
2019-03-31T00:53:25.552Z,5.50
2019-03-31T00:58:55.078Z,5.50
2019-03-31T01:04:27.370Z,5.50
2019-03-31T01:09:58.283Z,5.40
2019-03-31T01:15:28.051Z,5.40
2019-03-31T01:20:57.681Z,5.30
2019-03-31T01:26:27.570Z,5.30
2019-03-31T01:31:57.494Z,5.20
2019-03-31T01:37:27.121Z,5.10
2019-03-31T01:42:56.729Z,5.00
2019-03-31T01:48:26.324Z,5.00
2019-03-31T01:53:55.813Z,4.90
2019-03-31T01:59:25.236Z,4.90
2019-03-31T02:04:54.758Z,4.90
2019-03-31T02:10:24.184Z,4.90
2019-03-31T02:15:53.691Z,4.80
2019-03-31T02:21:23.125Z,4.70
2019-03-31T02:26:52.581Z,4.60
2019-03-31T02:32:24.178Z,4.50
2019-03-31T02:37:53.137Z,4.50
2019-03-31T02:43:23.588Z,4.40
2019-03-31T02:48:52.966Z,4.40
2019-03-31T02:54:22.422Z,4.30
2019-03-31T02:59:52.947Z,4.30
2019-03-31T03:05:24.541Z,4.30
2019-03-31T03:10:54.168Z,4.20
2019-03-31T03:16:23.759Z,4.20
2019-03-31T03:21:53.071Z,4.20
2019-03-31T03:27:22.538Z,4.20
2019-03-31T03:33:13.527Z,4.10
2019-03-31T03:38:23.072Z,4.10
2019-03-31T03:43:59.679Z,4.10
2019-03-31T03:49:23.559Z,4.10
2019-03-31T03:54:52.892Z,4.00
2019-03-31T04:00:22.267Z,4.00
2019-03-31T04:05:51.670Z,4.00
2019-03-31T04:11:23.321Z,4.00
2019-03-31T04:16:52.641Z,3.90
2019-03-31T04:22:22.017Z,3.90
2019-03-31T04:27:51.419Z,3.80
2019-03-31T04:33:20.745Z,3.80
2019-03-31T04:38:50.342Z,3.80
2019-03-31T04:44:19.709Z,3.80
2019-03-31T04:49:49.035Z,3.80
2019-03-31T04:55:18.367Z,3.70
2019-03-31T05:00:47.772Z,3.60
2019-03-31T05:06:17.196Z,3.60
2019-03-31T05:11:46.515Z,3.60
2019-03-31T05:17:15.979Z,3.70
2019-03-31T05:22:45.283Z,3.70
2019-03-31T05:28:14.669Z,3.80
2019-03-31T05:33:44.006Z,3.90
2019-03-31T05:39:13.333Z,4.00
2019-03-31T05:44:42.728Z,4.20
2019-03-31T05:50:12.221Z,4.40
2019-03-31T05:55:41.608Z,4.60
2019-03-31T06:01:10.980Z,4.80
2019-03-31T06:06:40.400Z,5.00
2019-03-31T06:12:09.700Z,5.30
2019-03-31T06:17:39.067Z,5.60
2019-03-31T06:23:08.542Z,5.90
2019-03-31T06:28:37.955Z,6.20
2019-03-31T06:34:07.467Z,6.50
2019-03-31T06:39:36.783Z,6.80
2019-03-31T06:45:08.144Z,7.10
2019-03-31T06:50:37.526Z,7.50
2019-03-31T06:56:06.915Z,7.80
2019-03-31T07:01:36.256Z,8.10
2019-03-31T07:07:05.659Z,8.40
2019-03-31T07:12:35.175Z,8.80
2019-03-31T07:18:04.645Z,9.10
2019-03-31T07:23:34.051Z,9.40
2019-03-31T07:29:03.899Z,9.80
2019-03-31T07:34:33.246Z,10.10
2019-03-31T07:40:03.131Z,10.40
2019-03-31T07:45:32.594Z,10.70
2019-03-31T07:51:02.165Z,11.10
2019-03-31T07:56:31.708Z,11.40
2019-03-31T08:02:01.330Z,11.70
2019-03-31T08:07:30.962Z,12.00
2019-03-31T08:13:00.494Z,12.40
2019-03-31T08:18:29.979Z,12.60
2019-03-31T08:23:59.651Z,13.00
2019-03-31T08:29:29.451Z,13.40
2019-03-31T08:34:59.007Z,13.70
2019-03-31T08:40:28.681Z,14.00
2019-03-31T08:45:58.519Z,14.30
2019-03-31T08:51:28.224Z,14.50
2019-03-31T08:56:57.778Z,14.80
2019-03-31T09:02:36.361Z,15.00
2019-03-31T09:08:05.827Z,15.20
2019-03-31T09:13:37.004Z,15.40
2019-03-31T09:19:06.427Z,15.60
2019-03-31T09:24:35.968Z,15.90
2019-03-31T09:30:11.479Z,16.00
2019-03-31T09:35:41.087Z,16.30
2019-03-31T09:41:10.518Z,16.40
2019-03-31T09:46:40.585Z,16.60
2019-03-31T09:52:10.087Z,16.80
2019-03-31T09:57:39.822Z,16.80
2019-03-31T10:03:09.226Z,16.80
2019-03-31T10:08:38.749Z,17.10
2019-03-31T10:14:08.093Z,17.30
2019-03-31T10:19:37.439Z,17.40
2019-03-31T10:25:08.234Z,17.70
2019-03-31T10:30:40.240Z,18.00
2019-03-31T10:36:15.132Z,18.00
2019-03-31T10:41:44.777Z,17.90
2019-03-31T10:47:14.168Z,18.10
2019-03-31T10:52:43.854Z,18.00
2019-03-31T10:58:13.200Z,18.30
2019-03-31T11:03:42.702Z,18.20
2019-03-31T11:09:12.193Z,18.20
2019-03-31T11:14:41.683Z,18.30
2019-03-31T11:20:11.170Z,18.30
2019-03-31T11:25:40.513Z,18.40
2019-03-31T11:31:09.844Z,18.50
2019-03-31T11:36:39.269Z,18.60
2019-03-31T11:42:08.688Z,18.70
2019-03-31T11:47:38.239Z,18.70
2019-03-31T11:53:07.638Z,19.00
2019-03-31T11:58:37.048Z,19.20
2019-03-31T12:04:06.597Z,19.10
2019-03-31T12:09:36.094Z,19.10
2019-03-31T12:15:07.291Z,19.20
2019-03-31T12:20:36.878Z,19.20
2019-03-31T12:26:06.271Z,19.00
2019-03-31T12:31:35.854Z,19.30
2019-03-31T12:37:05.343Z,19.30
2019-03-31T12:42:34.746Z,19.30
2019-03-31T12:48:05.238Z,19.50
2019-03-31T12:53:34.697Z,19.50
2019-03-31T12:59:04.191Z,19.80
2019-03-31T13:04:33.691Z,20.20
2019-03-31T13:10:03.229Z,20.70
2019-03-31T13:15:32.595Z,21.20
2019-03-31T13:21:02.086Z,21.30
2019-03-31T13:26:31.501Z,21.00
2019-03-31T13:32:01.030Z,20.70
2019-03-31T13:37:30.469Z,20.90
2019-03-31T13:42:59.961Z,21.30
2019-03-31T13:48:29.400Z,22.00
2019-03-31T13:53:58.955Z,22.90
2019-03-31T13:59:28.472Z,23.90
2019-03-31T14:04:57.940Z,24.50
2019-03-31T14:10:27.653Z,25.10
2019-03-31T14:15:57.391Z,25.90
2019-03-31T14:21:27.180Z,26.70
2019-03-31T14:26:56.616Z,27.90
2019-03-31T14:32:27.539Z,28.20
2019-03-31T14:37:57.406Z,28.60
2019-03-31T14:43:28.421Z,29.00
2019-03-31T14:48:58.294Z,29.30
2019-03-31T14:54:28.106Z,29.30
2019-03-31T15:00:14.131Z,29.80
2019-03-31T15:05:33.611Z,29.80
2019-03-31T15:11:04.926Z,29.90
2019-03-31T15:16:34.656Z,30.00
2019-03-31T15:22:04.341Z,29.30
2019-03-31T15:27:34.126Z,28.30
2019-03-31T15:33:03.644Z,27.60
2019-03-31T15:38:33.293Z,26.80
2019-03-31T15:44:02.937Z,25.50
2019-03-31T15:49:34.038Z,24.50
2019-03-31T15:55:05.502Z,24.20
2019-03-31T16:00:44.103Z,23.40
2019-03-31T16:06:11.832Z,24.20
2019-03-31T16:11:53.508Z,24.70
2019-03-31T16:17:20.268Z,24.10
2019-03-31T16:22:53.466Z,23.50
2019-03-31T16:28:34.106Z,21.70
2019-03-31T16:34:04.021Z,20.30
2019-03-31T16:39:37.774Z,19.40
2019-03-31T16:45:08.281Z,18.60
2019-03-31T16:50:38.133Z,18.00
2019-03-31T16:56:07.984Z,17.50
2019-03-31T17:01:37.904Z,17.00
2019-03-31T17:07:07.729Z,16.70
2019-03-31T17:12:48.706Z,16.30
2019-03-31T17:18:18.283Z,16.00
2019-03-31T17:23:47.695Z,15.80
2019-03-31T17:29:17.155Z,15.60
2019-03-31T17:34:46.643Z,15.40
2019-03-31T17:40:16.192Z,15.10
2019-03-31T17:45:45.861Z,15.00
2019-03-31T17:51:15.538Z,14.80
2019-03-31T17:56:45.133Z,14.60
2019-03-31T18:02:15.057Z,14.40
2019-03-31T18:07:50.189Z,14.30
2019-03-31T18:13:16.453Z,14.10
2019-03-31T18:18:45.955Z,13.90
2019-03-31T18:24:15.750Z,13.80
2019-03-31T18:29:45.367Z,13.60
2019-03-31T18:35:16.934Z,13.40
2019-03-31T18:40:46.930Z,13.20
2019-03-31T18:46:18.112Z,13.10
2019-03-31T18:51:56.832Z,12.90
2019-03-31T18:57:27.987Z,12.70
2019-03-31T19:03:11.326Z,12.60
2019-03-31T19:08:45.390Z,12.50
2019-03-31T19:14:16.856Z,12.30
2019-03-31T19:19:51.000Z,12.20
2019-03-31T19:25:25.011Z,12.10
2019-03-31T19:31:05.352Z,12.00
2019-03-31T19:36:45.943Z,11.90
2019-03-31T19:42:26.631Z,11.70
2019-03-31T19:48:09.924Z,11.60
2019-03-31T19:53:46.685Z,11.50
2019-03-31T19:59:35.767Z,11.40
2019-03-31T20:05:09.967Z,11.30
2019-03-31T20:10:50.229Z,11.10
2019-03-31T20:16:24.291Z,11.00
2019-03-31T20:21:58.214Z,10.90
2019-03-31T20:27:29.522Z,10.70
2019-03-31T20:33:00.883Z,10.60
2019-03-31T20:38:49.569Z,10.50
2019-03-31T20:44:19.463Z,10.30
2019-03-31T20:49:48.928Z,10.10
2019-03-31T20:55:18.886Z,10.00
2019-03-31T21:00:48.640Z,10.00
2019-03-31T21:06:18.134Z,9.80
2019-03-31T21:11:47.500Z,9.60
2019-03-31T21:17:17.065Z,9.40
2019-03-31T21:22:46.502Z,9.30
2019-03-31T21:28:15.965Z,9.20
2019-03-31T21:33:45.430Z,9.20
2019-03-31T21:39:14.850Z,9.10
2019-03-31T21:44:44.263Z,9.00
2019-03-31T21:50:14.365Z,8.90
2019-03-31T21:55:44.767Z,8.80
2019-03-31T22:01:14.740Z,8.80
2019-03-31T22:06:44.117Z,8.90
2019-03-31T22:12:13.429Z,8.90
2019-03-31T22:17:45.948Z,8.90
2019-03-31T22:23:18.546Z,8.80
2019-03-31T22:28:48.204Z,8.80
2019-03-31T22:34:17.702Z,8.80
2019-03-31T22:39:47.081Z,8.80
2019-03-31T22:45:16.598Z,8.70
2019-03-31T22:50:46.024Z,8.70
2019-03-31T22:56:16.481Z,8.60
2019-03-31T23:01:45.799Z,8.60
2019-03-31T23:07:15.214Z,8.50
2019-03-31T23:12:44.601Z,8.40
2019-03-31T23:18:14.120Z,8.40
2019-03-31T23:23:43.600Z,8.30
2019-03-31T23:29:13.052Z,8.20
2019-03-31T23:34:42.637Z,8.20
2019-03-31T23:40:12.197Z,8.10
2019-03-31T23:45:41.531Z,8.00
2019-03-31T23:51:10.986Z,7.90
2019-03-31T23:56:42.191Z,7.80
